sensor_id;sensor_type;location;lat;lon;timestamp;P1;durP1;ratioP1;P2;durP2;ratioP2
1785;SDS011;890;48.158;11.540;2023-04-25T00:01:10;5.07;;;2.80;;
1785;SDS011;890;48.158;11.540;2023-04-25T00:03:38;3.90;;;3.00;;
1785;SDS011;890;48.158;11.540;2023-04-25T00:06:04;3.60;;;3.13;;
1785;SDS011;890;48.158;11.540;2023-04-25T00:08:31;3.37;;;2.67;;
1785;SDS011;890;48.158;11.540;2023-04-25T00:10:57;2.33;;;2.13;;
1785;SDS011;890;48.158;11.540;2023-04-25T00:13:23;5.43;;;3.20;;
1785;SDS011;890;48.158;11.540;2023-04-25T00:15:50;3.40;;;2.63;;
1785;SDS011;890;48.158;11.540;2023-04-25T00:18:16;3.43;;;2.70;;
1785;SDS011;890;48.158;11.540;2023-04-25T00:20:42;3.40;;;3.10;;
1785;SDS011;890;48.158;11.540;2023-04-25T00:23:11;3.13;;;2.47;;
1785;SDS011;890;48.158;11.540;2023-04-25T00:25:37;3.60;;;2.80;;
1785;SDS011;890;48.158;11.540;2023-04-25T00:28:03;4.67;;;2.80;;
1785;SDS011;890;48.158;11.540;2023-04-25T00:30:29;3.00;;;2.70;;
1785;SDS011;890;48.158;11.540;2023-04-25T00:32:54;5.60;;;3.27;;
1785;SDS011;890;48.158;11.540;2023-04-25T00:35:20;2.53;;;2.33;;
1785;SDS011;890;48.158;11.540;2023-04-25T00:37:46;3.50;;;2.70;;
1785;SDS011;890;48.158;11.540;2023-04-25T00:40:11;3.17;;;2.80;;
1785;SDS011;890;48.158;11.540;2023-04-25T00:42:37;3.43;;;3.13;;
1785;SDS011;890;48.158;11.540;2023-04-25T00:45:04;3.50;;;3.20;;
1785;SDS011;890;48.158;11.540;2023-04-25T00:47:31;2.70;;;2.50;;
1785;SDS011;890;48.158;11.540;2023-04-25T00:49:57;3.80;;;2.80;;
1785;SDS011;890;48.158;11.540;2023-04-25T00:52:23;3.00;;;2.70;;
1785;SDS011;890;48.158;11.540;2023-04-25T00:54:49;3.53;;;3.20;;
1785;SDS011;890;48.158;11.540;2023-04-25T00:57:15;2.77;;;2.57;;
1785;SDS011;890;48.158;11.540;2023-04-25T00:59:41;3.90;;;2.70;;
1785;SDS011;890;48.158;11.540;2023-04-25T01:02:09;4.23;;;2.80;;
1785;SDS011;890;48.158;11.540;2023-04-25T01:04:35;3.20;;;2.90;;
1785;SDS011;890;48.158;11.540;2023-04-25T01:07:01;6.23;;;2.80;;
1785;SDS011;890;48.158;11.540;2023-04-25T01:09:27;6.03;;;3.83;;
1785;SDS011;890;48.158;11.540;2023-04-25T01:11:56;3.43;;;2.80;;
1785;SDS011;890;48.158;11.540;2023-04-25T01:14:22;3.33;;;2.90;;
1785;SDS011;890;48.158;11.540;2023-04-25T01:16:48;3.03;;;2.73;;
1785;SDS011;890;48.158;11.540;2023-04-25T01:19:13;2.90;;;2.60;;
1785;SDS011;890;48.158;11.540;2023-04-25T01:21:42;3.40;;;2.90;;
1785;SDS011;890;48.158;11.540;2023-04-25T01:24:07;3.40;;;3.10;;
1785;SDS011;890;48.158;11.540;2023-04-25T01:26:33;3.93;;;3.20;;
1785;SDS011;890;48.158;11.540;2023-04-25T01:29:00;3.33;;;3.03;;
1785;SDS011;890;48.158;11.540;2023-04-25T01:31:26;4.57;;;2.83;;
1785;SDS011;890;48.158;11.540;2023-04-25T01:33:52;3.27;;;2.97;;
1785;SDS011;890;48.158;11.540;2023-04-25T01:36:18;3.67;;;3.37;;
1785;SDS011;890;48.158;11.540;2023-04-25T01:38:44;4.33;;;2.97;;
1785;SDS011;890;48.158;11.540;2023-04-25T01:41:12;3.70;;;2.50;;
1785;SDS011;890;48.158;11.540;2023-04-25T01:43:38;4.57;;;3.20;;
1785;SDS011;890;48.158;11.540;2023-04-25T01:46:04;3.40;;;3.10;;
1785;SDS011;890;48.158;11.540;2023-04-25T01:48:30;3.90;;;3.27;;
1785;SDS011;890;48.158;11.540;2023-04-25T01:50:56;3.20;;;2.90;;
1785;SDS011;890;48.158;11.540;2023-04-25T01:53:21;3.20;;;2.90;;
1785;SDS011;890;48.158;11.540;2023-04-25T01:55:47;4.40;;;3.30;;
1785;SDS011;890;48.158;11.540;2023-04-25T01:58:13;3.50;;;2.67;;
1785;SDS011;890;48.158;11.540;2023-04-25T02:00:38;4.27;;;3.13;;
1785;SDS011;890;48.158;11.540;2023-04-25T02:03:05;3.17;;;2.87;;
1785;SDS011;890;48.158;11.540;2023-04-25T02:05:38;3.23;;;2.90;;
1785;SDS011;890;48.158;11.540;2023-04-25T02:08:07;2.90;;;2.70;;
1785;SDS011;890;48.158;11.540;2023-04-25T02:10:34;3.37;;;3.07;;
1785;SDS011;890;48.158;11.540;2023-04-25T02:13:00;4.13;;;3.20;;
1785;SDS011;890;48.158;11.540;2023-04-25T02:15:26;3.30;;;2.97;;
1785;SDS011;890;48.158;11.540;2023-04-25T02:17:51;3.20;;;2.93;;
1785;SDS011;890;48.158;11.540;2023-04-25T02:20:18;3.47;;;3.17;;
1785;SDS011;890;48.158;11.540;2023-04-25T02:22:45;3.80;;;2.90;;
1785;SDS011;890;48.158;11.540;2023-04-25T02:25:11;4.00;;;3.07;;
1785;SDS011;890;48.158;11.540;2023-04-25T02:27:37;3.27;;;2.97;;
1785;SDS011;890;48.158;11.540;2023-04-25T02:30:03;3.30;;;3.00;;
1785;SDS011;890;48.158;11.540;2023-04-25T02:32:29;4.13;;;3.00;;
1785;SDS011;890;48.158;11.540;2023-04-25T02:34:55;5.27;;;3.07;;
1785;SDS011;890;48.158;11.540;2023-04-25T02:37:23;3.53;;;3.17;;
1785;SDS011;890;48.158;11.540;2023-04-25T02:39:49;4.27;;;3.20;;
1785;SDS011;890;48.158;11.540;2023-04-25T02:42:14;3.30;;;2.87;;
1785;SDS011;890;48.158;11.540;2023-04-25T02:44:40;3.00;;;2.80;;
1785;SDS011;890;48.158;11.540;2023-04-25T02:47:06;3.17;;;2.87;;
1785;SDS011;890;48.158;11.540;2023-04-25T02:49:31;3.30;;;3.00;;
1785;SDS011;890;48.158;11.540;2023-04-25T02:51:57;3.53;;;3.23;;
1785;SDS011;890;48.158;11.540;2023-04-25T02:54:22;4.60;;;3.17;;
1785;SDS011;890;48.158;11.540;2023-04-25T02:56:48;3.47;;;2.87;;
1785;SDS011;890;48.158;11.540;2023-04-25T02:59:14;3.43;;;3.13;;
1785;SDS011;890;48.158;11.540;2023-04-25T03:01:39;5.43;;;3.17;;
1785;SDS011;890;48.158;11.540;2023-04-25T03:04:05;3.20;;;2.90;;
1785;SDS011;890;48.158;11.540;2023-04-25T03:06:30;3.30;;;3.00;;
1785;SDS011;890;48.158;11.540;2023-04-25T03:08:56;3.10;;;2.80;;
1785;SDS011;890;48.158;11.540;2023-04-25T03:11:23;3.97;;;3.57;;
1785;SDS011;890;48.158;11.540;2023-04-25T03:13:50;3.40;;;2.93;;
1785;SDS011;890;48.158;11.540;2023-04-25T03:16:16;3.30;;;3.00;;
1785;SDS011;890;48.158;11.540;2023-04-25T03:18:41;3.50;;;3.20;;
1785;SDS011;890;48.158;11.540;2023-04-25T03:21:07;4.80;;;3.27;;
1785;SDS011;890;48.158;11.540;2023-04-25T03:23:32;3.53;;;3.23;;
1785;SDS011;890;48.158;11.540;2023-04-25T03:25:58;3.63;;;3.23;;
1785;SDS011;890;48.158;11.540;2023-04-25T03:28:24;3.17;;;2.87;;
1785;SDS011;890;48.158;11.540;2023-04-25T03:30:50;3.17;;;2.87;;
1785;SDS011;890;48.158;11.540;2023-04-25T03:33:16;3.27;;;2.80;;
1785;SDS011;890;48.158;11.540;2023-04-25T03:35:41;3.07;;;2.77;;
1785;SDS011;890;48.158;11.540;2023-04-25T03:38:07;3.10;;;2.80;;
1785;SDS011;890;48.158;11.540;2023-04-25T03:40:33;3.53;;;2.87;;
1785;SDS011;890;48.158;11.540;2023-04-25T03:42:59;3.20;;;2.70;;
1785;SDS011;890;48.158;11.540;2023-04-25T03:45:24;2.83;;;2.53;;
1785;SDS011;890;48.158;11.540;2023-04-25T03:47:50;3.67;;;2.80;;
1785;SDS011;890;48.158;11.540;2023-04-25T03:50:16;3.50;;;2.80;;
1785;SDS011;890;48.158;11.540;2023-04-25T03:52:42;3.73;;;3.00;;
1785;SDS011;890;48.158;11.540;2023-04-25T03:55:08;6.43;;;2.77;;
1785;SDS011;890;48.158;11.540;2023-04-25T03:57:34;3.40;;;2.80;;
1785;SDS011;890;48.158;11.540;2023-04-25T04:00:00;3.53;;;2.50;;
1785;SDS011;890;48.158;11.540;2023-04-25T04:02:26;3.70;;;2.73;;
1785;SDS011;890;48.158;11.540;2023-04-25T04:04:51;3.33;;;2.47;;
1785;SDS011;890;48.158;11.540;2023-04-25T04:07:17;8.03;;;2.67;;
1785;SDS011;890;48.158;11.540;2023-04-25T04:09:42;4.70;;;2.60;;
1785;SDS011;890;48.158;11.540;2023-04-25T04:12:08;3.13;;;2.47;;
1785;SDS011;890;48.158;11.540;2023-04-25T04:14:34;2.63;;;2.20;;
1785;SDS011;890;48.158;11.540;2023-04-25T04:16:59;4.27;;;2.70;;
1785;SDS011;890;48.158;11.540;2023-04-25T04:19:25;3.40;;;2.90;;
1785;SDS011;890;48.158;11.540;2023-04-25T04:21:51;3.70;;;2.10;;
1785;SDS011;890;48.158;11.540;2023-04-25T04:24:16;4.17;;;2.27;;
1785;SDS011;890;48.158;11.540;2023-04-25T04:26:42;2.33;;;2.00;;
1785;SDS011;890;48.158;11.540;2023-04-25T04:29:09;2.80;;;2.33;;
1785;SDS011;890;48.158;11.540;2023-04-25T04:31:36;3.00;;;2.60;;
1785;SDS011;890;48.158;11.540;2023-04-25T04:34:01;2.70;;;2.47;;
1785;SDS011;890;48.158;11.540;2023-04-25T04:36:28;3.33;;;2.20;;
1785;SDS011;890;48.158;11.540;2023-04-25T04:38:54;3.03;;;2.17;;
1785;SDS011;890;48.158;11.540;2023-04-25T04:41:22;3.00;;;2.60;;
1785;SDS011;890;48.158;11.540;2023-04-25T04:43:48;2.80;;;2.50;;
1785;SDS011;890;48.158;11.540;2023-04-25T04:46:14;2.70;;;2.50;;
1785;SDS011;890;48.158;11.540;2023-04-25T04:48:39;3.07;;;2.83;;
1785;SDS011;890;48.158;11.540;2023-04-25T04:51:05;3.20;;;2.73;;
1785;SDS011;890;48.158;11.540;2023-04-25T04:53:31;3.00;;;2.70;;
1785;SDS011;890;48.158;11.540;2023-04-25T04:55:57;3.33;;;2.70;;
1785;SDS011;890;48.158;11.540;2023-04-25T04:58:23;3.23;;;2.70;;
1785;SDS011;890;48.158;11.540;2023-04-25T05:00:48;4.17;;;2.73;;
1785;SDS011;890;48.158;11.540;2023-04-25T05:03:14;3.70;;;2.70;;
1785;SDS011;890;48.158;11.540;2023-04-25T05:05:40;4.87;;;3.17;;
1785;SDS011;890;48.158;11.540;2023-04-25T05:08:06;3.13;;;2.83;;
1785;SDS011;890;48.158;11.540;2023-04-25T05:10:32;3.07;;;2.73;;
1785;SDS011;890;48.158;11.540;2023-04-25T05:12:58;3.63;;;3.20;;
1785;SDS011;890;48.158;11.540;2023-04-25T05:15:23;4.30;;;2.80;;
1785;SDS011;890;48.158;11.540;2023-04-25T05:17:49;6.10;;;3.00;;
1785;SDS011;890;48.158;11.540;2023-04-25T05:20:14;4.03;;;3.40;;
1785;SDS011;890;48.158;11.540;2023-04-25T05:22:40;4.20;;;3.30;;
1785;SDS011;890;48.158;11.540;2023-04-25T05:25:06;3.67;;;3.10;;
1785;SDS011;890;48.158;11.540;2023-04-25T05:27:33;6.20;;;3.47;;
1785;SDS011;890;48.158;11.540;2023-04-25T05:29:58;4.27;;;3.33;;
1785;SDS011;890;48.158;11.540;2023-04-25T05:32:24;4.03;;;3.00;;
1785;SDS011;890;48.158;11.540;2023-04-25T05:34:50;4.40;;;2.77;;
1785;SDS011;890;48.158;11.540;2023-04-25T05:37:16;4.30;;;3.00;;
1785;SDS011;890;48.158;11.540;2023-04-25T05:39:42;6.63;;;3.87;;
1785;SDS011;890;48.158;11.540;2023-04-25T05:42:08;3.47;;;3.17;;
1785;SDS011;890;48.158;11.540;2023-04-25T05:44:33;3.30;;;2.97;;
1785;SDS011;890;48.158;11.540;2023-04-25T05:46:59;4.87;;;3.50;;
1785;SDS011;890;48.158;11.540;2023-04-25T05:49:25;4.60;;;3.27;;
1785;SDS011;890;48.158;11.540;2023-04-25T05:51:50;4.77;;;3.40;;
1785;SDS011;890;48.158;11.540;2023-04-25T05:54:16;4.10;;;3.70;;
1785;SDS011;890;48.158;11.540;2023-04-25T05:56:41;5.57;;;3.70;;
1785;SDS011;890;48.158;11.540;2023-04-25T05:59:07;5.30;;;3.40;;
1785;SDS011;890;48.158;11.540;2023-04-25T06:01:33;4.77;;;3.60;;
1785;SDS011;890;48.158;11.540;2023-04-25T06:03:58;3.77;;;3.43;;
1785;SDS011;890;48.158;11.540;2023-04-25T06:06:24;4.67;;;3.23;;
1785;SDS011;890;48.158;11.540;2023-04-25T06:08:51;3.73;;;3.43;;
1785;SDS011;890;48.158;11.540;2023-04-25T06:11:17;3.90;;;3.50;;
1785;SDS011;890;48.158;11.540;2023-04-25T06:13:43;4.23;;;3.60;;
1785;SDS011;890;48.158;11.540;2023-04-25T06:16:08;4.40;;;4.00;;
1785;SDS011;890;48.158;11.540;2023-04-25T06:18:34;5.90;;;4.20;;
1785;SDS011;890;48.158;11.540;2023-04-25T06:20:59;5.63;;;3.47;;
1785;SDS011;890;48.158;11.540;2023-04-25T06:23:25;4.87;;;3.37;;
1785;SDS011;890;48.158;11.540;2023-04-25T06:25:51;3.90;;;3.50;;
1785;SDS011;890;48.158;11.540;2023-04-25T06:28:16;3.47;;;3.00;;
1785;SDS011;890;48.158;11.540;2023-04-25T06:30:42;4.40;;;4.00;;
1785;SDS011;890;48.158;11.540;2023-04-25T06:33:07;5.30;;;3.63;;
1785;SDS011;890;48.158;11.540;2023-04-25T06:35:33;5.33;;;3.80;;
1785;SDS011;890;48.158;11.540;2023-04-25T06:37:59;4.97;;;3.83;;
1785;SDS011;890;48.158;11.540;2023-04-25T06:40:25;4.43;;;3.87;;
1785;SDS011;890;48.158;11.540;2023-04-25T06:42:51;5.57;;;4.30;;
1785;SDS011;890;48.158;11.540;2023-04-25T06:45:16;4.67;;;4.27;;
1785;SDS011;890;48.158;11.540;2023-04-25T06:47:42;5.97;;;4.20;;
1785;SDS011;890;48.158;11.540;2023-04-25T06:50:08;4.73;;;4.33;;
1785;SDS011;890;48.158;11.540;2023-04-25T06:52:34;5.30;;;4.67;;
1785;SDS011;890;48.158;11.540;2023-04-25T06:54:59;4.77;;;4.13;;
1785;SDS011;890;48.158;11.540;2023-04-25T06:57:25;5.10;;;4.60;;
1785;SDS011;890;48.158;11.540;2023-04-25T06:59:51;15.10;;;4.70;;
1785;SDS011;890;48.158;11.540;2023-04-25T07:02:17;4.60;;;4.07;;
1785;SDS011;890;48.158;11.540;2023-04-25T07:04:43;5.20;;;4.27;;
1785;SDS011;890;48.158;11.540;2023-04-25T07:07:10;5.33;;;3.37;;
1785;SDS011;890;48.158;11.540;2023-04-25T07:09:36;7.50;;;4.20;;
1785;SDS011;890;48.158;11.540;2023-04-25T07:12:02;3.60;;;3.30;;
1785;SDS011;890;48.158;11.540;2023-04-25T07:14:28;5.50;;;4.00;;
1785;SDS011;890;48.158;11.540;2023-04-25T07:16:53;4.53;;;3.77;;
1785;SDS011;890;48.158;11.540;2023-04-25T07:19:21;5.37;;;3.97;;
1785;SDS011;890;48.158;11.540;2023-04-25T07:21:48;4.63;;;3.60;;
1785;SDS011;890;48.158;11.540;2023-04-25T07:24:14;5.27;;;3.63;;
1785;SDS011;890;48.158;11.540;2023-04-25T07:26:40;5.07;;;3.90;;
1785;SDS011;890;48.158;11.540;2023-04-25T07:29:05;4.00;;;3.70;;
1785;SDS011;890;48.158;11.540;2023-04-25T07:31:31;4.90;;;3.57;;
1785;SDS011;890;48.158;11.540;2023-04-25T07:33:57;3.37;;;3.00;;
1785;SDS011;890;48.158;11.540;2023-04-25T07:36:22;4.93;;;3.13;;
1785;SDS011;890;48.158;11.540;2023-04-25T07:38:48;4.57;;;3.17;;
1785;SDS011;890;48.158;11.540;2023-04-25T07:41:13;11.50;;;7.07;;
1785;SDS011;890;48.158;11.540;2023-04-25T07:43:39;3.20;;;2.87;;
1785;SDS011;890;48.158;11.540;2023-04-25T07:46:04;4.50;;;3.03;;
1785;SDS011;890;48.158;11.540;2023-04-25T07:48:30;4.07;;;3.67;;
1785;SDS011;890;48.158;11.540;2023-04-25T07:50:56;3.63;;;3.20;;
1785;SDS011;890;48.158;11.540;2023-04-25T07:53:21;3.37;;;3.07;;
1785;SDS011;890;48.158;11.540;2023-04-25T07:55:47;3.30;;;3.00;;
1785;SDS011;890;48.158;11.540;2023-04-25T07:58:13;4.93;;;3.30;;
1785;SDS011;890;48.158;11.540;2023-04-25T08:00:40;4.40;;;3.50;;
1785;SDS011;890;48.158;11.540;2023-04-25T08:03:06;4.43;;;3.60;;
1785;SDS011;890;48.158;11.540;2023-04-25T08:05:32;4.73;;;3.57;;
1785;SDS011;890;48.158;11.540;2023-04-25T08:07:58;4.33;;;3.23;;
1785;SDS011;890;48.158;11.540;2023-04-25T08:10:24;6.00;;;3.60;;
1785;SDS011;890;48.158;11.540;2023-04-25T08:12:49;3.47;;;2.90;;
1785;SDS011;890;48.158;11.540;2023-04-25T08:15:15;5.17;;;3.50;;
1785;SDS011;890;48.158;11.540;2023-04-25T08:17:41;5.43;;;3.60;;
1785;SDS011;890;48.158;11.540;2023-04-25T08:20:06;3.60;;;3.23;;
1785;SDS011;890;48.158;11.540;2023-04-25T08:22:32;3.53;;;3.23;;
1785;SDS011;890;48.158;11.540;2023-04-25T08:24:59;3.87;;;3.40;;
1785;SDS011;890;48.158;11.540;2023-04-25T08:27:24;4.37;;;3.10;;
1785;SDS011;890;48.158;11.540;2023-04-25T08:29:50;3.60;;;3.03;;
1785;SDS011;890;48.158;11.540;2023-04-25T08:32:16;4.00;;;2.80;;
1785;SDS011;890;48.158;11.540;2023-04-25T08:34:41;3.60;;;3.20;;
1785;SDS011;890;48.158;11.540;2023-04-25T08:37:08;5.77;;;3.60;;
1785;SDS011;890;48.158;11.540;2023-04-25T08:39:35;4.23;;;3.20;;
1785;SDS011;890;48.158;11.540;2023-04-25T08:42:02;3.30;;;2.70;;
1785;SDS011;890;48.158;11.540;2023-04-25T08:44:33;2.80;;;2.40;;
1785;SDS011;890;48.158;11.540;2023-04-25T08:47:00;2.90;;;2.60;;
1785;SDS011;890;48.158;11.540;2023-04-25T08:49:31;3.47;;;2.67;;
1785;SDS011;890;48.158;11.540;2023-04-25T08:52:02;3.40;;;2.23;;
1785;SDS011;890;48.158;11.540;2023-04-25T08:54:31;2.43;;;2.23;;
1785;SDS011;890;48.158;11.540;2023-04-25T08:56:57;5.97;;;2.50;;
1785;SDS011;890;48.158;11.540;2023-04-25T08:59:29;4.60;;;2.50;;
1785;SDS011;890;48.158;11.540;2023-04-25T09:01:55;3.97;;;2.10;;
1785;SDS011;890;48.158;11.540;2023-04-25T09:04:21;3.20;;;2.07;;
1785;SDS011;890;48.158;11.540;2023-04-25T09:06:47;4.90;;;2.60;;
1785;SDS011;890;48.158;11.540;2023-04-25T09:09:13;3.67;;;2.23;;
1785;SDS011;890;48.158;11.540;2023-04-25T09:11:39;3.10;;;1.77;;
1785;SDS011;890;48.158;11.540;2023-04-25T09:21:57;3.20;;;1.93;;
1785;SDS011;890;48.158;11.540;2023-04-25T09:24:30;3.93;;;2.20;;
1785;SDS011;890;48.158;11.540;2023-04-25T09:26:57;2.60;;;2.17;;
1785;SDS011;890;48.158;11.540;2023-04-25T09:29:33;3.00;;;2.20;;
1785;SDS011;890;48.158;11.540;2023-04-25T09:32:14;3.47;;;2.47;;
1785;SDS011;890;48.158;11.540;2023-04-25T09:34:41;2.37;;;2.17;;
1785;SDS011;890;48.158;11.540;2023-04-25T09:37:09;2.03;;;1.83;;
1785;SDS011;890;48.158;11.540;2023-04-25T09:39:36;3.20;;;1.90;;
1785;SDS011;890;48.158;11.540;2023-04-25T09:42:03;2.33;;;1.70;;
1785;SDS011;890;48.158;11.540;2023-04-25T09:44:29;2.13;;;1.80;;
1785;SDS011;890;48.158;11.540;2023-04-25T09:46:55;2.30;;;1.73;;
1785;SDS011;890;48.158;11.540;2023-04-25T09:49:20;3.53;;;2.30;;
1785;SDS011;890;48.158;11.540;2023-04-25T09:51:56;2.90;;;1.70;;
1785;SDS011;890;48.158;11.540;2023-04-25T09:54:25;5.53;;;1.77;;
1785;SDS011;890;48.158;11.540;2023-04-25T09:56:52;2.60;;;1.60;;
1785;SDS011;890;48.158;11.540;2023-04-25T09:59:22;3.13;;;2.40;;
1785;SDS011;890;48.158;11.540;2023-04-25T10:01:48;2.37;;;1.93;;
1785;SDS011;890;48.158;11.540;2023-04-25T10:04:19;2.30;;;2.10;;
1785;SDS011;890;48.158;11.540;2023-04-25T10:06:47;2.10;;;1.40;;
1785;SDS011;890;48.158;11.540;2023-04-25T10:09:14;1.87;;;1.63;;
1785;SDS011;890;48.158;11.540;2023-04-25T10:11:40;4.30;;;1.57;;
1785;SDS011;890;48.158;11.540;2023-04-25T10:14:06;5.53;;;2.07;;
1785;SDS011;890;48.158;11.540;2023-04-25T10:16:32;2.27;;;1.93;;
1785;SDS011;890;48.158;11.540;2023-04-25T10:18:58;1.70;;;1.60;;
1785;SDS011;890;48.158;11.540;2023-04-25T10:21:23;3.20;;;2.10;;
1785;SDS011;890;48.158;11.540;2023-04-25T10:23:52;2.73;;;1.90;;
1785;SDS011;890;48.158;11.540;2023-04-25T10:26:18;2.77;;;1.73;;
1785;SDS011;890;48.158;11.540;2023-04-25T10:28:57;2.47;;;1.73;;
1785;SDS011;890;48.158;11.540;2023-04-25T10:31:24;2.80;;;1.80;;
1785;SDS011;890;48.158;11.540;2023-04-25T10:33:49;2.00;;;1.80;;
1785;SDS011;890;48.158;11.540;2023-04-25T10:36:19;2.30;;;2.00;;
1785;SDS011;890;48.158;11.540;2023-04-25T10:38:49;2.80;;;2.10;;
1785;SDS011;890;48.158;11.540;2023-04-25T10:41:17;2.80;;;1.83;;
1785;SDS011;890;48.158;11.540;2023-04-25T10:43:45;3.63;;;1.70;;
1785;SDS011;890;48.158;11.540;2023-04-25T10:46:15;4.17;;;1.53;;
1785;SDS011;890;48.158;11.540;2023-04-25T10:48:55;1.50;;;1.33;;
1785;SDS011;890;48.158;11.540;2023-04-25T10:51:26;4.30;;;1.43;;
1785;SDS011;890;48.158;11.540;2023-04-25T10:54:00;2.10;;;1.53;;
1785;SDS011;890;48.158;11.540;2023-04-25T11:01:46;2.93;;;1.80;;
1785;SDS011;890;48.158;11.540;2023-04-25T11:04:23;1.77;;;1.47;;
1785;SDS011;890;48.158;11.540;2023-04-25T11:07:00;1.80;;;1.40;;
1785;SDS011;890;48.158;11.540;2023-04-25T11:09:28;5.60;;;2.00;;
1785;SDS011;890;48.158;11.540;2023-04-25T11:11:58;1.50;;;1.40;;
1785;SDS011;890;48.158;11.540;2023-04-25T11:14:25;1.67;;;1.43;;
1785;SDS011;890;48.158;11.540;2023-04-25T11:16:54;2.87;;;1.73;;
1785;SDS011;890;48.158;11.540;2023-04-25T11:19:24;2.03;;;1.40;;
1785;SDS011;890;48.158;11.540;2023-04-25T11:21:54;2.47;;;1.80;;
1785;SDS011;890;48.158;11.540;2023-04-25T11:24:24;4.20;;;2.07;;
1785;SDS011;890;48.158;11.540;2023-04-25T11:26:58;1.60;;;1.47;;
1785;SDS011;890;48.158;11.540;2023-04-25T11:29:27;4.40;;;1.90;;
1785;SDS011;890;48.158;11.540;2023-04-25T11:31:54;1.80;;;1.70;;
1785;SDS011;890;48.158;11.540;2023-04-25T11:34:23;2.00;;;1.80;;
1785;SDS011;890;48.158;11.540;2023-04-25T11:36:50;2.37;;;1.50;;
1785;SDS011;890;48.158;11.540;2023-04-25T11:39:18;3.80;;;1.47;;
1785;SDS011;890;48.158;11.540;2023-04-25T11:41:44;2.80;;;1.93;;
1785;SDS011;890;48.158;11.540;2023-04-25T11:44:09;1.83;;;1.73;;
1785;SDS011;890;48.158;11.540;2023-04-25T11:46:35;2.23;;;1.83;;
1785;SDS011;890;48.158;11.540;2023-04-25T11:49:01;2.20;;;2.00;;
1785;SDS011;890;48.158;11.540;2023-04-25T11:51:27;1.93;;;1.73;;
1785;SDS011;890;48.158;11.540;2023-04-25T11:53:52;2.43;;;2.23;;
1785;SDS011;890;48.158;11.540;2023-04-25T11:56:18;4.30;;;2.47;;
1785;SDS011;890;48.158;11.540;2023-04-25T11:58:58;2.10;;;1.80;;
1785;SDS011;890;48.158;11.540;2023-04-25T12:01:29;3.80;;;1.97;;
1785;SDS011;890;48.158;11.540;2023-04-25T12:03:57;1.70;;;1.57;;
1785;SDS011;890;48.158;11.540;2023-04-25T12:06:29;2.10;;;1.80;;
1785;SDS011;890;48.158;11.540;2023-04-25T12:09:14;2.80;;;1.80;;
1785;SDS011;890;48.158;11.540;2023-04-25T12:11:43;2.07;;;1.50;;
1785;SDS011;890;48.158;11.540;2023-04-25T12:14:10;2.10;;;1.70;;
1785;SDS011;890;48.158;11.540;2023-04-25T12:16:43;3.03;;;2.63;;
1785;SDS011;890;48.158;11.540;2023-04-25T12:19:13;2.80;;;1.33;;
1785;SDS011;890;48.158;11.540;2023-04-25T12:21:39;1.70;;;1.40;;
1785;SDS011;890;48.158;11.540;2023-04-25T12:24:23;2.23;;;1.43;;
1785;SDS011;890;48.158;11.540;2023-04-25T12:29:24;2.97;;;2.30;;
1785;SDS011;890;48.158;11.540;2023-04-25T12:31:52;3.00;;;2.17;;
1785;SDS011;890;48.158;11.540;2023-04-25T12:34:19;2.93;;;1.57;;
1785;SDS011;890;48.158;11.540;2023-04-25T12:36:45;2.43;;;1.70;;
1785;SDS011;890;48.158;11.540;2023-04-25T12:39:17;1.73;;;1.60;;
1785;SDS011;890;48.158;11.540;2023-04-25T12:41:47;2.30;;;1.70;;
1785;SDS011;890;48.158;11.540;2023-04-25T12:44:13;4.30;;;1.97;;
1785;SDS011;890;48.158;11.540;2023-04-25T12:46:39;3.53;;;1.50;;
1785;SDS011;890;48.158;11.540;2023-04-25T12:49:07;4.37;;;2.17;;
1785;SDS011;890;48.158;11.540;2023-04-25T12:51:36;3.00;;;2.03;;
1785;SDS011;890;48.158;11.540;2023-04-25T12:54:02;1.80;;;1.60;;
1785;SDS011;890;48.158;11.540;2023-04-25T12:56:30;2.83;;;1.70;;
1785;SDS011;890;48.158;11.540;2023-04-25T12:58:56;2.23;;;2.03;;
1785;SDS011;890;48.158;11.540;2023-04-25T13:01:22;2.00;;;1.60;;
1785;SDS011;890;48.158;11.540;2023-04-25T13:03:48;1.90;;;1.70;;
1785;SDS011;890;48.158;11.540;2023-04-25T13:06:14;2.53;;;1.50;;
1785;SDS011;890;48.158;11.540;2023-04-25T13:08:40;1.97;;;1.50;;
1785;SDS011;890;48.158;11.540;2023-04-25T13:11:06;1.43;;;1.33;;
1785;SDS011;890;48.158;11.540;2023-04-25T13:13:32;2.00;;;1.53;;
1785;SDS011;890;48.158;11.540;2023-04-25T13:15:59;1.73;;;1.60;;
1785;SDS011;890;48.158;11.540;2023-04-25T13:18:25;1.57;;;1.43;;
1785;SDS011;890;48.158;11.540;2023-04-25T13:20:54;1.93;;;1.70;;
1785;SDS011;890;48.158;11.540;2023-04-25T13:23:20;1.70;;;1.60;;
1785;SDS011;890;48.158;11.540;2023-04-25T13:25:46;1.73;;;1.60;;
1785;SDS011;890;48.158;11.540;2023-04-25T13:28:12;3.60;;;2.13;;
1785;SDS011;890;48.158;11.540;2023-04-25T13:30:40;2.40;;;2.10;;
1785;SDS011;890;48.158;11.540;2023-04-25T13:33:05;1.70;;;1.60;;
1785;SDS011;890;48.158;11.540;2023-04-25T13:35:32;1.80;;;1.50;;
1785;SDS011;890;48.158;11.540;2023-04-25T13:37:58;2.03;;;1.70;;
1785;SDS011;890;48.158;11.540;2023-04-25T13:40:24;2.10;;;1.70;;
1785;SDS011;890;48.158;11.540;2023-04-25T13:42:51;1.80;;;1.63;;
1785;SDS011;890;48.158;11.540;2023-04-25T13:45:17;2.33;;;1.60;;
1785;SDS011;890;48.158;11.540;2023-04-25T13:47:42;1.50;;;1.40;;
1785;SDS011;890;48.158;11.540;2023-04-25T13:50:08;1.60;;;1.33;;
1785;SDS011;890;48.158;11.540;2023-04-25T13:52:34;2.00;;;1.20;;
1785;SDS011;890;48.158;11.540;2023-04-25T13:55:00;1.70;;;1.60;;
1785;SDS011;890;48.158;11.540;2023-04-25T13:57:28;2.00;;;1.80;;
1785;SDS011;890;48.158;11.540;2023-04-25T13:59:55;1.60;;;1.50;;
1785;SDS011;890;48.158;11.540;2023-04-25T14:02:20;2.10;;;1.90;;
1785;SDS011;890;48.158;11.540;2023-04-25T14:04:46;2.70;;;2.10;;
1785;SDS011;890;48.158;11.540;2023-04-25T14:07:12;2.40;;;2.20;;
1785;SDS011;890;48.158;11.540;2023-04-25T14:09:40;2.60;;;2.10;;
1785;SDS011;890;48.158;11.540;2023-04-25T14:12:06;2.30;;;2.10;;
1785;SDS011;890;48.158;11.540;2023-04-25T14:14:32;2.50;;;2.30;;
1785;SDS011;890;48.158;11.540;2023-04-25T14:16:57;2.70;;;1.87;;
1785;SDS011;890;48.158;11.540;2023-04-25T14:19:25;2.30;;;2.10;;
1785;SDS011;890;48.158;11.540;2023-04-25T14:21:51;2.23;;;2.00;;
1785;SDS011;890;48.158;11.540;2023-04-25T14:24:16;2.20;;;2.00;;
1785;SDS011;890;48.158;11.540;2023-04-25T14:26:42;2.27;;;2.00;;
1785;SDS011;890;48.158;11.540;2023-04-25T14:29:08;2.47;;;2.27;;
1785;SDS011;890;48.158;11.540;2023-04-25T14:31:36;1.60;;;1.50;;
1785;SDS011;890;48.158;11.540;2023-04-25T14:34:02;1.77;;;1.40;;
1785;SDS011;890;48.158;11.540;2023-04-25T14:36:28;1.47;;;1.37;;
1785;SDS011;890;48.158;11.540;2023-04-25T14:38:55;1.23;;;1.13;;
1785;SDS011;890;48.158;11.540;2023-04-25T14:41:21;2.40;;;1.77;;
1785;SDS011;890;48.158;11.540;2023-04-25T14:43:48;2.20;;;1.70;;
1785;SDS011;890;48.158;11.540;2023-04-25T14:46:13;2.00;;;1.73;;
1785;SDS011;890;48.158;11.540;2023-04-25T14:48:39;1.53;;;1.43;;
1785;SDS011;890;48.158;11.540;2023-04-25T14:51:05;1.87;;;1.67;;
1785;SDS011;890;48.158;11.540;2023-04-25T14:53:31;1.70;;;1.60;;
1785;SDS011;890;48.158;11.540;2023-04-25T14:55:57;1.80;;;1.23;;
1785;SDS011;890;48.158;11.540;2023-04-25T14:58:23;1.63;;;1.30;;
1785;SDS011;890;48.158;11.540;2023-04-25T15:00:50;1.20;;;1.03;;
1785;SDS011;890;48.158;11.540;2023-04-25T15:03:16;2.07;;;1.20;;
1785;SDS011;890;48.158;11.540;2023-04-25T15:05:42;1.20;;;1.10;;
1785;SDS011;890;48.158;11.540;2023-04-25T15:08:08;1.00;;;0.90;;
1785;SDS011;890;48.158;11.540;2023-04-25T15:10:35;1.90;;;1.40;;
1785;SDS011;890;48.158;11.540;2023-04-25T15:13:01;1.63;;;1.23;;
1785;SDS011;890;48.158;11.540;2023-04-25T15:15:26;1.60;;;1.13;;
1785;SDS011;890;48.158;11.540;2023-04-25T15:17:52;2.00;;;1.30;;
1785;SDS011;890;48.158;11.540;2023-04-25T15:20:21;1.60;;;1.40;;
1785;SDS011;890;48.158;11.540;2023-04-25T15:22:47;1.60;;;1.50;;
1785;SDS011;890;48.158;11.540;2023-04-25T15:25:14;2.00;;;1.50;;
1785;SDS011;890;48.158;11.540;2023-04-25T15:27:42;1.77;;;1.63;;